Time;durP1;ratioP1;P1;durP2;ratioP2;P2;SDS_P1;SDS_P2;PMS_P1;PMS_P2;Temp;Humidity;BMP_temperature;BMP_pressure;BME280_temperature;BME280_humidity;BME280_pressure;Samples;Min_cycle;Max_cycle;Signal;HPM_P1;HPM_P2
2023/11/17 00:02:22;;;;;;;;;;;;;;;21.14;28.89;98150.72;4958098;28;948;-74
2023/11/17 00:04:47;;;;;;;;;;;;;;;21.03;28.81;98156.63;4957939;28;951;-74
2023/11/17 00:07:13;;;;;;;;;;;;;;;21.11;28.57;98152.41;4977355;28;1822;-74
2023/11/17 00:09:39;;;;;;;;;;;;;;;21.06;28.84;98162.22;4961064;28;998;-74
2023/11/17 00:12:05;;;;;;;;;;;;;;;20.77;29.64;98158.38;4976920;28;1335;-74
2023/11/17 00:14:31;;;;;;;;;;;;;;;21.23;29.06;98160.22;4961317;28;1121;-74
2023/11/17 00:16:56;;;;;;;;;;;;;;;21.11;29.14;98166.56;4963149;28;1521;-74
2023/11/17 00:19:22;;;;;;;;;;;;;;;21.19;28.52;98168.00;4996658;28;1910;-74
2023/11/17 00:21:47;;;;;;;;;;;;;;;20.96;29.16;98165.28;4996330;28;1096;-74
2023/11/17 00:24:13;;;;;;;;;;;;;;;20.74;29.40;98171.38;4985141;28;1144;-74
2023/11/17 00:26:38;;;;;;;;;;;;;;;20.86;29.00;98169.13;4996310;28;997;-74
2023/11/17 00:29:06;;;;;;;;;;;;;;;20.44;29.98;98171.53;4996394;28;1072;-74
2023/11/17 00:31:32;;;;;;;;;;;;;;;21.04;29.14;98163.91;4980183;28;1615;-74
2023/11/17 00:33:57;;;;;;;;;;;;;;;21.17;28.71;98167.63;4996178;28;1230;-74
2023/11/17 00:36:23;;;;;;;;;;;;;;;21.30;28.74;98160.09;4980088;28;1148;-74
2023/11/17 00:38:50;;;;;;;;;;;;;;;21.20;29.04;98165.97;4995912;28;1906;-76
2023/11/17 00:41:16;;;;;;;;;;;;;;;21.10;28.96;98156.47;4996224;28;1051;-76
2023/11/17 00:43:41;;;;;;;;;;;;;;;21.21;28.59;98148.53;5000443;28;1250;-75
2023/11/17 00:46:07;;;;;;;;;;;;;;;21.06;28.59;98141.59;5019803;28;853;-76
2023/11/17 00:48:32;;;;;;;;;;;;;;;20.85;29.10;98140.03;5003245;28;1047;-76
2023/11/17 00:50:58;;;;;;;;;;;;;;;20.63;29.36;98128.38;5003433;28;1091;-76
2023/11/17 00:53:26;;;;;;;;;;;;;;;20.76;29.44;98118.00;5019880;28;887;-76
2023/11/17 00:55:55;;;;;;;;;;;;;;;20.71;29.51;98107.19;5004111;28;1092;-76
2023/11/17 00:58:21;;;;;;;;;;;;;;;20.98;29.23;98106.22;5037217;28;913;-76
2023/11/17 01:00:46;;;;;;;;;;;;;;;21.03;28.91;98111.34;5019534;28;1968;-76
2023/11/17 01:03:12;;;;;;;;;;;;;;;21.08;28.63;98108.81;5037451;28;1032;-76
2023/11/17 01:05:37;;;;;;;;;;;;;;;21.08;28.87;98091.81;5019576;28;1105;-76
2023/11/17 01:08:03;;;;;;;;;;;;;;;21.38;28.34;98075.00;4979247;28;1173;-76
2023/11/17 01:10:29;;;;;;;;;;;;;;;21.06;28.57;98087.84;4963421;28;1279;-76
2023/11/17 01:12:54;;;;;;;;;;;;;;;21.21;28.30;98077.81;4963128;28;1291;-76
2023/11/17 01:15:20;;;;;;;;;;;;;;;21.14;28.41;98082.81;4979422;28;1033;-76
2023/11/17 01:17:46;;;;;;;;;;;;;;;21.11;28.51;98084.50;4995434;28;1076;-76
2023/11/17 01:20:12;;;;;;;;;;;;;;;20.95;28.64;98087.31;4937302;29;1899;-76
2023/11/17 01:22:40;;;;;;;;;;;;;;;20.90;28.78;98085.78;4937568;29;1151;-76
2023/11/17 01:25:06;;;;;;;;;;;;;;;20.86;29.16;98090.72;4905759;29;1088;-76
2023/11/17 01:27:31;;;;;;;;;;;;;;;21.08;28.51;98082.53;4902604;29;1331;-75
2023/11/17 01:29:57;;;;;;;;;;;;;;;21.30;28.15;98083.69;4886935;29;1689;-76
2023/11/17 01:32:22;;;;;;;;;;;;;;;21.34;28.12;98075.09;4871133;29;1121;-76
2023/11/17 01:34:48;;;;;;;;;;;;;;;21.40;28.11;98069.69;4902492;29;967;-76
2023/11/17 01:37:14;;;;;;;;;;;;;;;21.16;28.51;98075.50;4886884;29;1239;-76
2023/11/17 01:39:39;;;;;;;;;;;;;;;21.10;28.57;98087.78;4880517;29;1911;-76
2023/11/17 01:42:05;;;;;;;;;;;;;;;21.07;28.40;98083.78;4880616;29;1055;-76
2023/11/17 01:44:31;;;;;;;;;;;;;;;21.05;28.44;98086.25;4884208;29;944;-76
2023/11/17 01:46:56;;;;;;;;;;;;;;;20.62;28.97;98086.41;4918199;29;997;-76
2023/11/17 01:49:22;;;;;;;;;;;;;;;21.07;28.47;98078.13;4918169;29;984;-76
2023/11/17 01:51:49;;;;;;;;;;;;;;;20.93;28.66;98073.59;4930997;29;1057;-77
2023/11/17 01:54:15;;;;;;;;;;;;;;;20.90;28.54;98071.66;4956477;29;1063;-76
2023/11/17 01:56:40;;;;;;;;;;;;;;;21.20;28.12;98058.44;4955809;29;1092;-76
2023/11/17 01:59:07;;;;;;;;;;;;;;;21.06;28.65;98042.59;4940101;29;2219;-76
2023/11/17 02:01:34;;;;;;;;;;;;;;;21.26;28.22;98043.31;4956018;29;1277;-76
2023/11/17 02:04:00;;;;;;;;;;;;;;;21.07;28.26;98032.84;4944374;28;1239;-76
2023/11/17 02:06:29;;;;;;;;;;;;;;;20.89;28.59;98024.00;4978416;28;1298;-76
2023/11/17 02:09:00;;;;;;;;;;;;;;;20.97;28.55;98014.91;4994741;28;1060;-75
2023/11/17 02:11:37;;;;;;;;;;;;;;;20.98;28.23;98024.97;4995960;28;984;-76
2023/11/17 02:14:06;;;;;;;;;;;;;;;20.96;28.62;98032.31;4982663;28;1069;-77
2023/11/17 02:16:33;;;;;;;;;;;;;;;20.86;28.75;98037.00;4991175;28;1403;-76
2023/11/17 02:19:01;;;;;;;;;;;;;;;21.34;27.91;98035.47;5006919;28;1982;-76
2023/11/17 02:21:31;;;;;;;;;;;;;;;21.05;28.67;98021.19;5006404;28;1119;-76
2023/11/17 02:23:57;;;;;;;;;;;;;;;21.12;28.61;98023.84;5022568;28;1157;-76
2023/11/17 02:26:31;;;;;;;;;;;;;;;21.17;28.32;98020.50;5023013;28;992;-76
2023/11/17 02:29:00;;;;;;;;;;;;;;;21.03;28.54;98015.97;5006128;28;1149;-76
2023/11/17 02:31:32;;;;;;;;;;;;;;;21.00;28.32;98016.06;5039035;28;1120;-76
2023/11/17 02:34:07;;;;;;;;;;;;;;;20.88;28.53;98019.56;4982532;28;1143;-76
2023/11/17 02:36:35;;;;;;;;;;;;;;;21.02;28.62;98013.59;4982187;28;1033;-76
2023/11/17 02:39:24;;;;;;;;;;;;;;;21.13;28.61;98002.00;4982244;28;1910;-76
2023/11/17 02:41:56;;;;;;;;;;;;;;;21.03;28.67;97999.00;4952790;28;1272;-75
2023/11/17 02:44:44;;;;;;;;;;;;;;;20.95;28.77;98002.44;4982916;28;1132;-76
2023/11/17 02:47:19;;;;;;;;;;;;;;;21.03;28.60;98009.50;4984670;28;977;-76
2023/11/17 02:49:52;;;;;;;;;;;;;;;21.20;28.15;98002.63;4983055;28;1410;-76
2023/11/17 02:52:31;;;;;;;;;;;;;;;20.98;28.73;98007.22;4966812;28;1027;-76
2023/11/17 02:54:59;;;;;;;;;;;;;;;20.92;28.82;98000.50;4997919;28;975;-76
2023/11/17 02:57:24;;;;;;;;;;;;;;;21.11;28.82;97982.66;4965533;28;1051;-76
2023/11/17 02:59:50;;;;;;;;;;;;;;;20.92;28.93;97980.69;4981761;28;1922;-76
2023/11/17 03:02:19;;;;;;;;;;;;;;;20.90;28.81;97967.00;4981571;28;1130;-76
2023/11/17 03:04:44;;;;;;;;;;;;;;;21.06;28.91;97963.38;4949960;28;1112;-76
2023/11/17 03:07:10;;;;;;;;;;;;;;;21.40;28.19;97962.13;4981659;28;915;-76
2023/11/17 03:09:36;;;;;;;;;;;;;;;21.00;28.63;97953.84;4981588;28;1488;-76
2023/11/17 03:12:02;;;;;;;;;;;;;;;21.02;28.59;97940.03;4976918;28;915;-76
2023/11/17 03:14:28;;;;;;;;;;;;;;;21.12;28.48;97938.97;4997872;28;1098;-76
2023/11/17 03:16:55;;;;;;;;;;;;;;;21.00;28.58;97922.72;4997708;28;1146;-76
2023/11/17 03:19:23;;;;;;;;;;;;;;;20.94;28.81;97932.97;4981279;28;1935;-76
2023/11/17 03:21:49;;;;;;;;;;;;;;;20.90;28.98;97932.28;4958714;28;1257;-76
2023/11/17 03:24:17;;;;;;;;;;;;;;;20.95;28.87;97934.56;4942612;29;1516;-76
2023/11/17 03:26:43;;;;;;;;;;;;;;;20.95;28.92;97943.06;4958723;28;982;-76
2023/11/17 03:29:10;;;;;;;;;;;;;;;21.12;28.84;97950.28;4958560;28;1125;-76
2023/11/17 03:31:35;;;;;;;;;;;;;;;21.25;28.56;97951.16;4958321;28;970;-75
2023/11/17 03:34:01;;;;;;;;;;;;;;;21.30;28.44;97947.84;4958237;28;1027;-76
2023/11/17 03:36:26;;;;;;;;;;;;;;;21.23;28.45;97953.63;4958359;28;1045;-75
2023/11/17 03:38:55;;;;;;;;;;;;;;;20.94;29.09;97944.28;4958572;28;1906;-75
2023/11/17 03:41:22;;;;;;;;;;;;;;;20.79;29.21;97950.28;4942348;29;1302;-76
2023/11/17 03:43:48;;;;;;;;;;;;;;;20.89;28.83;97948.44;4977551;28;912;-76
2023/11/17 03:46:14;;;;;;;;;;;;;;;20.92;28.98;97958.06;4980928;28;1127;-75
2023/11/17 03:48:40;;;;;;;;;;;;;;;20.79;29.37;97953.13;4980457;28;1055;-76
2023/11/17 03:51:06;;;;;;;;;;;;;;;21.00;28.81;97959.50;4948617;28;1278;-76
2023/11/17 03:53:34;;;;;;;;;;;;;;;20.79;29.00;97960.81;4997379;28;1023;-76
2023/11/17 03:55:59;;;;;;;;;;;;;;;21.00;28.90;97953.84;5004463;28;1248;-76
2023/11/17 03:58:27;;;;;;;;;;;;;;;21.33;28.29;97944.09;5020615;28;1053;-76
2023/11/17 04:00:53;;;;;;;;;;;;;;;21.47;28.18;97942.13;5038583;28;1906;-76
2023/11/17 04:03:19;;;;;;;;;;;;;;;21.41;28.32;97943.94;5020780;28;903;-76
2023/11/17 04:05:45;;;;;;;;;;;;;;;21.46;28.15;97920.75;5038432;28;927;-76
2023/11/17 04:08:10;;;;;;;;;;;;;;;20.97;28.37;97923.59;5004881;28;971;-76
2023/11/17 04:10:36;;;;;;;;;;;;;;;20.95;28.54;97934.56;5020837;28;910;-76
2023/11/17 04:13:01;;;;;;;;;;;;;;;21.23;28.11;97918.88;5004513;28;1053;-76
2023/11/17 04:15:27;;;;;;;;;;;;;;;21.10;28.20;97921.66;5037978;28;1007;-76
2023/11/17 04:17:53;;;;;;;;;;;;;;;20.72;28.81;97910.06;5020637;28;1008;-76
2023/11/17 04:20:19;;;;;;;;;;;;;;;20.95;28.61;97914.78;5004198;28;1910;-75
2023/11/17 04:22:44;;;;;;;;;;;;;;;20.76;28.98;97917.22;5004225;28;1412;-76
2023/11/17 04:25:10;;;;;;;;;;;;;;;21.30;28.48;97919.53;5000439;28;1106;-76
2023/11/17 04:27:38;;;;;;;;;;;;;;;21.38;28.48;97922.16;5015335;28;1028;-76
2023/11/17 04:30:07;;;;;;;;;;;;;;;21.37;28.24;97897.94;5000142;28;951;-76
2023/11/17 04:32:34;;;;;;;;;;;;;;;21.21;28.47;97890.25;5015997;28;920;-76
2023/11/17 04:35:00;;;;;;;;;;;;;;;20.96;28.84;97893.72;4998028;28;1988;-76
2023/11/17 04:37:25;;;;;;;;;;;;;;;21.09;28.77;97894.59;4995795;28;1435;-76
2023/11/17 04:39:51;;;;;;;;;;;;;;;20.94;28.69;97894.19;5012882;28;1899;-76
2023/11/17 04:42:17;;;;;;;;;;;;;;;20.91;28.91;97897.88;4998459;28;1645;-76
2023/11/17 04:44:42;;;;;;;;;;;;;;;21.11;28.46;97897.78;4998559;28;1819;-76
2023/11/17 04:47:09;;;;;;;;;;;;;;;21.25;28.36;97897.41;5012491;28;1698;-76
2023/11/17 04:49:36;;;;;;;;;;;;;;;21.22;28.48;97903.94;4997319;28;1903;-76
2023/11/17 04:52:02;;;;;;;;;;;;;;;20.96;28.87;97903.00;5002148;28;1649;-76
2023/11/17 04:54:28;;;;;;;;;;;;;;;21.11;28.62;97896.97;5014880;28;1669;-76
2023/11/17 04:56:55;;;;;;;;;;;;;;;21.03;28.34;97896.34;4998746;28;1389;-76
2023/11/17 04:59:21;;;;;;;;;;;;;;;21.03;28.50;97890.69;4995922;28;2000;-76
2023/11/17 05:01:46;;;;;;;;;;;;;;;21.25;28.19;97888.91;5017021;28;1435;-76
2023/11/17 05:04:13;;;;;;;;;;;;;;;21.32;28.31;97887.94;5016082;28;1344;-76
2023/11/17 05:06:39;;;;;;;;;;;;;;;21.05;28.68;97879.75;5015666;28;1420;-76
2023/11/17 05:09:10;;;;;;;;;;;;;;;20.94;28.69;97876.41;4975631;28;1449;-76
2023/11/17 05:11:37;;;;;;;;;;;;;;;21.04;28.37;97881.00;4960311;28;1357;-76
2023/11/17 05:14:02;;;;;;;;;;;;;;;20.95;28.70;97872.34;4975432;28;1460;-76
2023/11/17 05:16:29;;;;;;;;;;;;;;;20.63;29.07;97873.94;4975593;28;1611;-76
2023/11/17 05:18:55;;;;;;;;;;;;;;;21.09;28.70;97871.97;4959212;28;1915;-76
2023/11/17 05:21:21;;;;;;;;;;;;;;;21.12;28.37;97873.91;4959436;28;1527;-74
2023/11/17 05:23:48;;;;;;;;;;;;;;;21.12;28.36;97859.75;4964571;28;1579;-76
2023/11/17 05:26:13;;;;;;;;;;;;;;;21.21;28.20;97862.75;4978339;28;1531;-76
2023/11/17 05:28:39;;;;;;;;;;;;;;;21.12;28.10;97865.41;4978457;28;1543;-76
2023/11/17 05:31:05;;;;;;;;;;;;;;;20.84;28.72;97860.50;4994851;28;1582;-76
2023/11/17 05:33:30;;;;;;;;;;;;;;;20.78;28.91;97858.22;4978494;28;1644;-76
2023/11/17 05:35:56;;;;;;;;;;;;;;;20.92;28.78;97856.25;4978883;28;1528;-76
2023/11/17 05:38:23;;;;;;;;;;;;;;;20.95;28.77;97872.34;4978419;28;1429;-76
2023/11/17 05:40:49;;;;;;;;;;;;;;;20.95;28.90;97867.47;5023873;28;1910;-76
2023/11/17 05:43:15;;;;;;;;;;;;;;;21.30;28.14;97865.75;5036519;28;1383;-76
2023/11/17 05:45:40;;;;;;;;;;;;;;;21.13;28.71;97850.03;5018258;28;1405;-76
2023/11/17 05:48:06;;;;;;;;;;;;;;;21.05;28.77;97859.94;5022107;28;1341;-76
2023/11/17 05:50:31;;;;;;;;;;;;;;;21.24;28.56;97850.53;5020590;28;1421;-76
2023/11/17 05:52:57;;;;;;;;;;;;;;;20.91;28.69;97863.94;5035936;28;1368;-76
2023/11/17 05:55:23;;;;;;;;;;;;;;;20.97;28.76;97852.88;5036239;28;1494;-76
2023/11/17 05:57:50;;;;;;;;;;;;;;;20.84;29.16;97854.84;5018221;28;1412;-76
2023/11/17 06:02:52;;;;;;;;;;;;;;;21.33;29.65;97861.22;4993902;28;1298;-74
2023/11/17 06:05:18;;;;;;;;;;;;;;;21.49;28.63;97861.19;4980290;28;1487;-75
2023/11/17 06:07:43;;;;;;;;;;;;;;;21.13;29.10;97861.34;4964921;28;1432;-75
2023/11/17 06:10:09;;;;;;;;;;;;;;;20.85;29.53;97856.44;4996674;28;1542;-75
2023/11/17 06:12:34;;;;;;;;;;;;;;;20.88;29.32;97864.03;4997789;28;1548;-75
2023/11/17 06:15:01;;;;;;;;;;;;;;;20.93;29.63;97866.31;4997909;28;1471;-75
2023/11/17 06:17:26;;;;;;;;;;;;;;;21.02;29.55;97874.97;5010162;28;1372;-75
2023/11/17 06:19:52;;;;;;;;;;;;;;;21.02;29.83;97872.16;4995978;28;1969;-76
2023/11/17 06:22:17;;;;;;;;;;;;;;;21.22;29.43;97863.53;4996539;28;1514;-75
2023/11/17 06:24:43;;;;;;;;;;;;;;;21.08;29.65;97854.19;4978708;28;1541;-75
2023/11/17 06:27:10;;;;;;;;;;;;;;;20.86;30.02;97863.69;4996795;28;1630;-76
2023/11/17 06:29:36;;;;;;;;;;;;;;;21.29;29.10;97857.66;4998383;28;1531;-75
2023/11/17 06:32:02;;;;;;;;;;;;;;;21.03;29.32;97856.75;4998072;28;1612;-76
2023/11/17 06:34:28;;;;;;;;;;;;;;;21.07;29.55;97840.50;4956716;28;1547;-76
2023/11/17 06:36:53;;;;;;;;;;;;;;;20.64;30.30;97847.25;4994181;28;1409;-76
2023/11/17 06:39:21;;;;;;;;;;;;;;;20.71;30.13;97847.06;4996723;28;1906;-75
2023/11/17 06:41:47;;;;;;;;;;;;;;;20.94;30.12;97848.13;4994993;28;1641;-75
2023/11/17 06:44:13;;;;;;;;;;;;;;;21.26;29.74;97842.38;4978162;28;1476;-75
2023/11/17 06:46:42;;;;;;;;;;;;;;;21.30;29.58;97839.50;5011591;28;1475;-75
2023/11/17 06:49:09;;;;;;;;;;;;;;;21.26;29.60;97842.38;4996656;28;1511;-75
2023/11/17 06:51:40;;;;;;;;;;;;;;;21.17;29.79;97839.41;4980806;28;1361;-75
2023/11/17 06:54:10;;;;;;;;;;;;;;;21.22;29.48;97824.72;4997591;28;1341;-75
2023/11/17 06:56:40;;;;;;;;;;;;;;;21.04;29.64;97824.44;4965104;28;1449;-75
2023/11/17 06:59:09;;;;;;;;;;;;;;;20.70;30.16;97825.69;5014846;28;1975;-75
2023/11/17 07:01:35;;;;;;;;;;;;;;;20.71;30.08;97830.09;5024497;28;1460;-74
2023/11/17 07:04:02;;;;;;;;;;;;;;;21.24;29.41;97822.25;4997089;28;1555;-75
2023/11/17 07:06:28;;;;;;;;;;;;;;;21.51;28.94;97815.47;5012206;28;1545;-75
2023/11/17 07:08:54;;;;;;;;;;;;;;;21.27;29.45;97810.00;5019906;28;1603;-76
2023/11/17 07:11:19;;;;;;;;;;;;;;;21.25;29.44;97811.72;4991397;28;1409;-76
2023/11/17 07:13:45;;;;;;;;;;;;;;;21.08;29.52;97808.13;5019111;28;1451;-75
2023/11/17 07:16:12;;;;;;;;;;;;;;;21.02;29.38;97804.25;5037796;28;1636;-76
2023/11/17 07:18:41;;;;;;;;;;;;;;;21.23;28.99;97800.81;5004434;28;1569;-76
2023/11/17 07:21:08;;;;;;;;;;;;;;;21.08;29.04;97793.97;4995200;28;1887;-75
2023/11/17 07:23:34;;;;;;;;;;;;;;;21.29;29.16;97789.75;5019401;28;1603;-75
2023/11/17 07:26:00;;;;;;;;;;;;;;;21.20;29.06;97787.59;4993815;28;1416;-75
2023/11/17 07:28:26;;;;;;;;;;;;;;;21.31;28.98;97781.66;5021199;28;1491;-75
2023/11/17 07:30:52;;;;;;;;;;;;;;;21.33;28.85;97776.31;5019029;28;1495;-75
2023/11/17 07:33:18;;;;;;;;;;;;;;;21.19;28.84;97769.03;5018732;28;1545;-76
2023/11/17 07:35:44;;;;;;;;;;;;;;;20.57;29.39;97756.97;5022156;28;1401;-75
2023/11/17 07:38:09;;;;;;;;;;;;;;;20.54;29.66;97763.53;5037649;28;1523;-76
2023/11/17 07:40:35;;;;;;;;;;;;;;;20.89;29.17;97761.00;5038516;28;1906;-76
2023/11/17 07:43:00;;;;;;;;;;;;;;;21.25;29.01;97753.09;5034761;28;1437;-76
2023/11/17 07:45:26;;;;;;;;;;;;;;;21.32;28.79;97743.63;5035661;28;1432;-74
2023/11/17 07:47:51;;;;;;;;;;;;;;;21.24;28.81;97754.34;5023730;28;1650;-74
2023/11/17 07:50:19;;;;;;;;;;;;;;;21.04;28.88;97750.88;5019697;28;1392;-75
2023/11/17 07:52:44;;;;;;;;;;;;;;;21.14;28.67;97744.13;5002242;28;1417;-75
2023/11/17 07:55:13;;;;;;;;;;;;;;;20.88;28.98;97743.25;5001074;28;1607;-75
2023/11/17 07:57:39;;;;;;;;;;;;;;;20.81;28.96;97738.56;4990835;28;1571;-75
2023/11/17 08:00:13;;;;;;;;;;;;;;;20.71;29.61;97736.03;5001100;28;1981;-75
2023/11/17 08:02:38;;;;;;;;;;;;;;;20.96;29.16;97732.50;4978521;28;1359;-75
2023/11/17 08:05:04;;;;;;;;;;;;;;;21.18;28.73;97741.16;4985382;28;1541;-75
2023/11/17 08:07:31;;;;;;;;;;;;;;;21.17;28.62;97746.03;4982819;28;943;-75
2023/11/17 08:09:56;;;;;;;;;;;;;;;21.33;28.40;97748.03;4987559;28;1389;-75
2023/11/17 08:12:22;;;;;;;;;;;;;;;21.17;28.57;97740.38;4995515;28;1110;-75
2023/11/17 08:14:47;;;;;;;;;;;;;;;21.29;28.28;97733.16;4979096;28;987;-76
2023/11/17 08:17:13;;;;;;;;;;;;;;;20.91;28.58;97724.56;4978880;28;998;-76
2023/11/17 08:19:40;;;;;;;;;;;;;;;20.84;28.80;97727.59;4978637;28;1902;-75
2023/11/17 08:22:05;;;;;;;;;;;;;;;20.98;28.81;97730.00;4988140;28;1325;-75
2023/11/17 08:24:31;;;;;;;;;;;;;;;21.00;28.90;97727.53;4981530;28;904;-75
2023/11/17 08:26:56;;;;;;;;;;;;;;;21.04;28.92;97733.91;4981584;28;1021;-75
2023/11/17 08:29:23;;;;;;;;;;;;;;;21.06;28.64;97739.91;4981770;28;1277;-76
2023/11/17 08:31:48;;;;;;;;;;;;;;;21.03;28.96;97729.47;4998308;28;1164;-75
2023/11/17 08:34:16;;;;;;;;;;;;;;;20.61;29.19;97723.75;4982144;28;1068;-75
2023/11/17 08:36:42;;;;;;;;;;;;;;;20.95;28.55;97725.28;4981371;28;886;-75
2023/11/17 08:39:08;;;;;;;;;;;;;;;20.90;28.85;97717.31;4988089;28;1905;-76
2023/11/17 08:41:34;;;;;;;;;;;;;;;20.99;28.93;97706.16;5020554;28;985;-75
2023/11/17 08:43:59;;;;;;;;;;;;;;;20.99;28.62;97715.44;5003537;28;1443;-76
2023/11/17 08:46:28;;;;;;;;;;;;;;;21.14;28.67;97704.50;5003586;28;1008;-75
2023/11/17 08:48:56;;;;;;;;;;;;;;;21.25;28.39;97702.16;5002887;28;1527;-76
2023/11/17 08:51:21;;;;;;;;;;;;;;;21.12;28.51;97695.66;5033952;28;1305;-75
2023/11/17 08:53:47;;;;;;;;;;;;;;;20.96;28.61;97692.91;5016374;28;1339;-75
2023/11/17 08:56:13;;;;;;;;;;;;;;;21.03;28.27;97689.88;5015176;28;1475;-75
2023/11/17 08:58:39;;;;;;;;;;;;;;;21.07;28.33;97693.38;4997707;28;1390;-75
2023/11/17 09:01:05;;;;;;;;;;;;;;;20.89;28.46;97687.47;5026231;28;1898;-76
2023/11/17 09:03:32;;;;;;;;;;;;;;;21.14;29.24;97693.19;5028636;28;1336;-75
2023/11/17 09:05:59;;;;;;;;;;;;;;;21.43;29.68;97686.69;5054628;28;885;-75
2023/11/17 09:08:26;;;;;;;;;;;;;;;21.36;29.35;97669.94;5023075;28;1357;-75
2023/11/17 09:10:51;;;;;;;;;;;;;;;21.05;29.26;97664.75;5016839;28;1184;-75
2023/11/17 09:13:17;;;;;;;;;;;;;;;20.66;29.67;97663.06;5016239;28;1025;-75
2023/11/17 09:15:43;;;;;;;;;;;;;;;20.74;29.65;97659.59;5001049;28;1356;-75
2023/11/17 09:18:08;;;;;;;;;;;;;;;20.92;29.68;97655.44;4999088;28;1265;-75
2023/11/17 09:20:36;;;;;;;;;;;;;;;20.98;29.76;97639.50;5005245;28;1973;-75
2023/11/17 09:23:01;;;;;;;;;;;;;;;21.21;29.49;97615.78;5018575;28;1169;-75
2023/11/17 09:25:27;;;;;;;;;;;;;;;21.24;29.67;97612.84;5006128;28;1197;-76
2023/11/17 09:27:53;;;;;;;;;;;;;;;20.91;29.80;97623.53;5016193;28;1257;-75
2023/11/17 09:30:19;;;;;;;;;;;;;;;21.10;29.71;97613.28;5032518;28;941;-75
2023/11/17 09:32:45;;;;;;;;;;;;;;;21.00;29.67;97603.09;5032066;28;929;-74
2023/11/17 09:35:15;;;;;;;;;;;;;;;21.04;29.77;97592.47;5032224;28;901;-75
2023/11/17 09:37:50;;;;;;;;;;;;;;;21.06;29.79;97589.97;5045017;28;1236;-76
2023/11/17 09:40:20;;;;;;;;;;;;;;;21.19;29.99;97593.59;5035456;28;1960;-75
2023/11/17 09:42:48;;;;;;;;;;;;;;;21.12;30.17;97605.13;5035754;28;942;-75
2023/11/17 09:45:17;;;;;;;;;;;;;;;21.37;29.54;97595.09;5052877;28;984;-75
2023/11/17 09:47:43;;;;;;;;;;;;;;;21.38;29.55;97588.19;5036243;28;996;-75
2023/11/17 09:50:09;;;;;;;;;;;;;;;20.99;30.12;97576.06;5035921;28;856;-75
2023/11/17 09:52:35;;;;;;;;;;;;;;;21.03;29.54;97582.38;5052140;28;1014;-75
2023/11/17 09:55:00;;;;;;;;;;;;;;;21.06;29.82;97573.00;5052563;28;930;-75
2023/11/17 09:57:26;;;;;;;;;;;;;;;21.05;29.40;97569.38;5052455;28;932;-75
2023/11/17 09:59:51;;;;;;;;;;;;;;;21.01;29.71;97565.06;5036812;28;1902;-75
2023/11/17 10:02:19;;;;;;;;;;;;;;;20.86;30.45;97561.09;5052376;28;1136;-75
2023/11/17 10:04:45;;;;;;;;;;;;;;;20.80;30.41;97556.00;5035537;28;1342;-75
2023/11/17 10:07:11;;;;;;;;;;;;;;;21.14;29.77;97557.41;5036969;28;1123;-76
2023/11/17 10:09:37;;;;;;;;;;;;;;;20.98;30.18;97552.63;5051915;28;970;-76
2023/11/17 10:12:04;;;;;;;;;;;;;;;21.07;29.68;97547.06;5051675;28;896;-75
2023/11/17 10:14:30;;;;;;;;;;;;;;;21.12;29.78;97537.25;5019227;28;1332;-75
2023/11/17 10:16:55;;;;;;;;;;;;;;;21.03;29.64;97537.13;5014736;28;2032;-75
2023/11/17 10:19:22;;;;;;;;;;;;;;;21.11;29.38;97535.66;5015946;28;1950;-75
2023/11/17 10:21:49;;;;;;;;;;;;;;;20.74;29.66;97532.38;5016181;28;838;-75
2023/11/17 10:24:14;;;;;;;;;;;;;;;20.80;29.87;97538.25;5015665;28;891;-75
2023/11/17 10:26:40;;;;;;;;;;;;;;;20.84;30.04;97524.00;5017118;28;921;-75
2023/11/17 10:29:06;;;;;;;;;;;;;;;20.98;29.80;97510.19;5016354;28;944;-75
2023/11/17 10:31:36;;;;;;;;;;;;;;;21.29;29.32;97518.88;5015419;28;960;-75
2023/11/17 10:34:03;;;;;;;;;;;;;;;21.11;29.77;97515.06;5019211;28;893;-76
2023/11/17 10:36:28;;;;;;;;;;;;;;;21.10;29.50;97519.94;5019607;28;952;-76
2023/11/17 10:39:03;;;;;;;;;;;;;;;20.91;29.73;97526.59;5020513;28;918;-75
2023/11/17 10:41:33;;;;;;;;;;;;;;;20.93;29.57;97521.28;5020376;28;1919;-75
2023/11/17 10:44:02;;;;;;;;;;;;;;;20.80;29.65;97516.41;5002452;28;1196;-75
2023/11/17 10:46:28;;;;;;;;;;;;;;;21.11;29.61;97495.25;5001530;28;1003;-74
2023/11/17 10:48:58;;;;;;;;;;;;;;;21.04;29.63;97491.44;5018000;28;912;-75
2023/11/17 10:51:24;;;;;;;;;;;;;;;21.22;29.41;97488.00;5018168;28;956;-76
2023/11/17 10:54:05;;;;;;;;;;;;;;;21.29;29.26;97484.13;5018137;28;1028;-75
2023/11/17 10:56:32;;;;;;;;;;;;;;;21.07;29.41;97484.06;5017780;28;1010;-75
2023/11/17 10:58:58;;;;;;;;;;;;;;;21.19;29.24;97480.44;5018037;28;884;-75
2023/11/17 11:01:30;;;;;;;;;;;;;;;20.99;29.54;97477.06;5017884;28;1922;-76
2023/11/17 11:03:55;;;;;;;;;;;;;;;20.98;29.54;97464.94;4998121;28;1464;-75
2023/11/17 11:06:21;;;;;;;;;;;;;;;20.88;29.50;97453.97;4982125;28;924;-75
2023/11/17 11:08:50;;;;;;;;;;;;;;;20.80;29.64;97454.22;4978269;28;1093;-76
2023/11/17 11:11:20;;;;;;;;;;;;;;;20.78;29.52;97439.75;4978175;28;1005;-75
2023/11/17 11:13:46;;;;;;;;;;;;;;;21.04;29.64;97434.06;4978515;28;1324;-75
2023/11/17 11:16:11;;;;;;;;;;;;;;;21.14;29.18;97438.56;4995109;28;1072;-75
2023/11/17 11:18:46;;;;;;;;;;;;;;;20.93;29.41;97439.25;4981585;28;991;-76
2023/11/17 11:21:16;;;;;;;;;;;;;;;21.33;28.90;97440.34;4965323;28;1906;-76
2023/11/17 11:23:43;;;;;;;;;;;;;;;21.16;29.09;97430.41;4982176;28;1167;-75
2023/11/17 11:26:09;;;;;;;;;;;;;;;21.29;28.98;97424.72;4965320;28;894;-76
2023/11/17 11:28:34;;;;;;;;;;;;;;;20.71;29.66;97417.34;4981536;28;970;-75
2023/11/17 11:31:00;;;;;;;;;;;;;;;20.92;29.31;97420.72;4997522;28;1044;-75
2023/11/17 11:33:30;;;;;;;;;;;;;;;20.90;29.26;97417.56;4965468;28;969;-75
2023/11/17 11:35:56;;;;;;;;;;;;;;;20.87;29.39;97418.47;4930402;28;1253;-75
2023/11/17 11:38:22;;;;;;;;;;;;;;;21.12;29.23;97407.09;4942819;28;1238;-75
2023/11/17 11:40:48;;;;;;;;;;;;;;;21.23;28.95;97412.41;4995492;28;1983;-75
2023/11/17 11:43:15;;;;;;;;;;;;;;;21.32;28.84;97421.00;5014791;28;845;-75
2023/11/17 11:45:41;;;;;;;;;;;;;;;21.35;28.86;97420.09;4998529;28;901;-75
2023/11/17 11:48:08;;;;;;;;;;;;;;;21.26;29.01;97414.31;4982342;28;951;-75
2023/11/17 11:50:37;;;;;;;;;;;;;;;21.14;28.83;97404.63;4998385;28;887;-75
2023/11/17 11:53:05;;;;;;;;;;;;;;;21.02;29.26;97396.94;4998389;28;1002;-75
2023/11/17 11:55:30;;;;;;;;;;;;;;;20.94;29.25;97395.63;4998371;28;1214;-75
2023/11/17 11:57:57;;;;;;;;;;;;;;;20.91;29.31;97405.00;5014781;28;1425;-75
2023/11/17 12:00:24;;;;;;;;;;;;;;;20.76;29.40;97391.31;4977243;28;1899;-76
2023/11/17 12:02:59;;;;;;;;;;;;;;;20.87;29.59;97390.19;4961419;28;1223;-75
2023/11/17 12:05:30;;;;;;;;;;;;;;;20.97;29.36;97374.91;4977593;28;1380;-75
2023/11/17 12:07:56;;;;;;;;;;;;;;;21.40;28.61;97373.44;4977385;28;1068;-75
2023/11/17 12:10:21;;;;;;;;;;;;;;;21.16;28.71;97373.84;4977600;28;942;-75
2023/11/17 12:12:47;;;;;;;;;;;;;;;21.44;28.57;97379.75;4981157;28;1270;-76
2023/11/17 12:15:13;;;;;;;;;;;;;;;21.14;28.68;97373.50;5017101;28;902;-75
2023/11/17 12:17:42;;;;;;;;;;;;;;;20.99;29.07;97375.25;5000236;28;990;-75
2023/11/17 12:20:24;;;;;;;;;;;;;;;20.80;29.10;97369.38;5019520;28;1902;-75
2023/11/17 12:22:56;;;;;;;;;;;;;;;20.94;28.72;97370.16;5019470;28;1257;-75
2023/11/17 12:25:21;;;;;;;;;;;;;;;20.96;29.11;97362.78;5035798;28;1144;-75
2023/11/17 12:27:48;;;;;;;;;;;;;;;21.03;28.93;97344.78;5019275;28;1063;-75
2023/11/17 12:30:14;;;;;;;;;;;;;;;21.11;28.96;97354.63;5034967;28;1135;-75
2023/11/17 12:32:40;;;;;;;;;;;;;;;21.00;28.92;97365.50;5015921;28;934;-75
2023/11/17 12:35:06;;;;;;;;;;;;;;;20.95;29.25;97357.59;5015961;28;904;-75
2023/11/17 12:37:32;;;;;;;;;;;;;;;20.96;28.95;97353.53;4983394;28;1186;-75
2023/11/17 12:39:58;;;;;;;;;;;;;;;21.01;28.81;97350.13;5015921;28;1977;-76
2023/11/17 12:42:24;;;;;;;;;;;;;;;20.92;29.20;97352.84;5016237;28;1145;-75
2023/11/17 12:44:50;;;;;;;;;;;;;;;20.79;29.43;97344.41;4999509;28;1209;-75
2023/11/17 12:47:15;;;;;;;;;;;;;;;21.01;29.21;97338.81;5015689;28;1025;-75
2023/11/17 12:49:51;;;;;;;;;;;;;;;21.00;28.89;97337.22;5015593;28;1027;-75
2023/11/17 12:52:17;;;;;;;;;;;;;;;20.98;28.94;97329.19;5052212;28;1035;-76
2023/11/17 12:54:43;;;;;;;;;;;;;;;21.01;29.00;97319.00;5036051;28;1487;-75
2023/11/17 12:57:08;;;;;;;;;;;;;;;21.06;28.63;97319.22;5036684;28;865;-75
2023/11/17 12:59:34;;;;;;;;;;;;;;;21.04;28.71;97306.78;5052798;28;1894;-75
2023/11/17 13:01:59;;;;;;;;;;;;;;;20.94;28.85;97305.91;5018945;28;1174;-75